createdAt,value
2022-09-08T00:00:15.294Z,96.87
2022-09-08T00:02:44.149Z,100.00
2022-09-08T00:05:15.124Z,100.00
2022-09-08T00:07:43.374Z,100.00
2022-09-08T00:10:12.541Z,100.00
2022-09-08T00:12:42.655Z,100.00
2022-09-08T00:15:11.224Z,100.00
2022-09-08T00:17:39.478Z,100.00
2022-09-08T00:20:10.311Z,100.00
2022-09-08T00:22:37.783Z,100.00
2022-09-08T00:25:05.889Z,100.00
2022-09-08T00:27:33.387Z,100.00
2022-09-08T00:30:00.869Z,100.00
2022-09-08T00:32:28.319Z,100.00
2022-09-08T00:34:56.136Z,100.00
2022-09-08T00:37:27.118Z,100.00
2022-09-08T00:39:54.602Z,100.00
2022-09-08T00:42:22.207Z,100.00
2022-09-08T00:44:50.535Z,100.00
2022-09-08T00:47:24.677Z,100.00
2022-09-08T00:49:57.524Z,100.00
2022-09-08T00:52:29.004Z,100.00
2022-09-08T00:54:56.676Z,100.00
2022-09-08T00:57:24.871Z,100.00
2022-09-08T00:59:52.719Z,100.00
2022-09-08T01:02:25.165Z,100.00
2022-09-08T01:04:59.892Z,100.00
2022-09-08T01:07:56.347Z,100.00
2022-09-08T01:10:56.710Z,100.00
2022-09-08T01:13:25.625Z,100.00
2022-09-08T01:15:53.251Z,100.00
2022-09-08T01:18:20.910Z,100.00
2022-09-08T01:20:51.738Z,100.00
2022-09-08T01:23:39.183Z,100.00
2022-09-08T01:26:19.661Z,100.00
2022-09-08T01:28:53.447Z,100.00
2022-09-08T01:31:22.635Z,100.00
2022-09-08T01:33:50.332Z,100.00
2022-09-08T01:36:19.455Z,100.00
2022-09-08T01:38:47.613Z,100.00
2022-09-08T01:41:15.499Z,100.00
2022-09-08T01:43:42.996Z,100.00
2022-09-08T01:46:11.931Z,100.00
2022-09-08T01:48:39.442Z,100.00
2022-09-08T01:51:09.530Z,100.00
2022-09-08T01:53:37.461Z,100.00
2022-09-08T01:56:06.764Z,100.00
2022-09-08T01:58:35.096Z,100.00
2022-09-08T02:01:02.694Z,100.00
2022-09-08T02:03:31.695Z,100.00
2022-09-08T02:06:02.028Z,100.00
2022-09-08T02:08:30.225Z,100.00
2022-09-08T02:11:00.005Z,100.00
2022-09-08T02:13:27.787Z,100.00
2022-09-08T02:16:00.111Z,100.00
2022-09-08T02:18:32.011Z,100.00
2022-09-08T02:21:08.111Z,100.00
2022-09-08T02:23:36.210Z,100.00
2022-09-08T02:26:04.431Z,100.00
2022-09-08T02:28:32.008Z,100.00
2022-09-08T02:31:01.010Z,100.00
2022-09-08T02:33:29.013Z,100.00
2022-09-08T02:35:58.257Z,100.00
2022-09-08T02:38:27.231Z,100.00
2022-09-08T02:40:54.753Z,100.00
2022-09-08T02:43:23.048Z,100.00
2022-09-08T02:45:51.172Z,100.00
2022-09-08T02:48:18.870Z,100.00
2022-09-08T02:50:47.124Z,100.00
2022-09-08T02:53:16.195Z,100.00
2022-09-08T02:55:44.623Z,100.00
2022-09-08T02:58:12.851Z,100.00
2022-09-08T03:00:40.572Z,100.00
2022-09-08T03:03:08.723Z,100.00
2022-09-08T03:05:37.161Z,100.00
2022-09-08T03:08:05.610Z,100.00
2022-09-08T03:10:35.088Z,100.00
2022-09-08T03:13:03.166Z,100.00
2022-09-08T03:15:32.710Z,100.00
2022-09-08T03:18:00.989Z,100.00
2022-09-08T03:20:28.520Z,100.00
2022-09-08T03:22:55.988Z,100.00
2022-09-08T03:25:23.681Z,100.00
2022-09-08T03:27:52.564Z,100.00
2022-09-08T03:30:20.426Z,100.00
2022-09-08T03:32:48.889Z,100.00
2022-09-08T03:35:18.771Z,100.00
2022-09-08T03:37:47.027Z,100.00
2022-09-08T03:40:16.842Z,100.00
2022-09-08T03:42:46.133Z,100.00
2022-09-08T03:45:16.596Z,100.00
2022-09-08T03:47:44.175Z,100.00
2022-09-08T03:50:12.708Z,100.00
2022-09-08T03:52:40.476Z,100.00
2022-09-08T03:55:09.303Z,100.00
2022-09-08T03:57:37.316Z,100.00
2022-09-08T04:00:08.007Z,100.00
2022-09-08T04:02:37.526Z,100.00
2022-09-08T04:05:06.080Z,100.00
2022-09-08T04:07:34.288Z,100.00
2022-09-08T04:10:07.038Z,100.00
2022-09-08T04:12:38.773Z,100.00
2022-09-08T04:15:07.636Z,100.00
2022-09-08T04:17:35.257Z,100.00
2022-09-08T04:20:05.048Z,100.00
2022-09-08T04:22:32.525Z,100.00
2022-09-08T04:25:00.228Z,100.00
2022-09-08T04:27:27.645Z,100.00
2022-09-08T04:29:55.179Z,100.00
2022-09-08T04:32:22.664Z,100.00
2022-09-08T04:34:51.191Z,100.00
2022-09-08T04:37:21.083Z,100.00
2022-09-08T04:39:50.064Z,100.00
2022-09-08T04:42:17.736Z,100.00
2022-09-08T04:44:45.239Z,100.00
2022-09-08T04:47:13.155Z,100.00
2022-09-08T04:49:40.597Z,100.00
2022-09-08T04:52:08.051Z,100.00
2022-09-08T04:54:37.101Z,100.00
2022-09-08T04:57:04.735Z,100.00
2022-09-08T04:59:32.401Z,100.00
2022-09-08T05:02:00.035Z,100.00
2022-09-08T05:04:27.483Z,100.00
2022-09-08T05:06:54.942Z,100.00
2022-09-08T05:09:22.466Z,100.00
2022-09-08T05:11:51.310Z,100.00
2022-09-08T05:14:18.917Z,100.00
2022-09-08T05:16:46.471Z,100.00
2022-09-08T05:19:14.709Z,100.00
2022-09-08T05:21:42.212Z,100.00
2022-09-08T05:24:09.712Z,100.00
2022-09-08T05:26:37.251Z,100.00
2022-09-08T05:29:06.136Z,100.00
2022-09-08T05:31:34.122Z,100.00
2022-09-08T05:34:02.708Z,100.00
2022-09-08T05:36:32.376Z,100.00
2022-09-08T05:39:00.109Z,100.00
2022-09-08T05:41:27.844Z,100.00
2022-09-08T05:43:55.808Z,100.00
2022-09-08T05:46:27.314Z,100.00
2022-09-08T05:48:56.024Z,100.00
2022-09-08T05:51:23.476Z,100.00
2022-09-08T05:53:51.140Z,100.00
2022-09-08T05:56:20.534Z,100.00
2022-09-08T05:58:57.394Z,100.00
2022-09-08T06:01:28.701Z,100.00
2022-09-08T06:03:56.640Z,100.00
2022-09-08T06:06:24.405Z,100.00
2022-09-08T06:08:55.240Z,100.00
2022-09-08T06:11:23.131Z,100.00
2022-09-08T06:13:50.588Z,100.00
2022-09-08T06:16:18.402Z,100.00
2022-09-08T06:18:48.428Z,100.00
2022-09-08T06:21:18.609Z,100.00
2022-09-08T06:23:49.706Z,100.00
2022-09-08T06:26:43.608Z,100.00
2022-09-08T06:29:15.290Z,100.00
2022-09-08T06:31:48.944Z,100.00
2022-09-08T06:34:23.125Z,100.00
2022-09-08T06:36:53.682Z,100.00
2022-09-08T06:39:26.264Z,100.00
2022-09-08T06:41:59.573Z,100.00
2022-09-08T06:44:31.798Z,100.00
2022-09-08T06:46:59.493Z,100.00
2022-09-08T06:49:29.671Z,100.00
2022-09-08T06:52:03.418Z,100.00
2022-09-08T06:54:42.572Z,100.00
2022-09-08T06:57:29.278Z,100.00
2022-09-08T07:00:07.760Z,100.00
2022-09-08T07:02:59.201Z,100.00
2022-09-08T07:05:51.709Z,100.00
2022-09-08T07:08:29.805Z,100.00
2022-09-08T07:11:05.835Z,100.00
2022-09-08T07:13:38.004Z,100.00
2022-09-08T07:16:13.995Z,100.00
2022-09-08T07:18:46.227Z,100.00
2022-09-08T07:21:21.713Z,100.00
2022-09-08T07:23:51.156Z,100.00
2022-09-08T07:26:26.593Z,100.00
2022-09-08T07:28:56.045Z,100.00
2022-09-08T07:31:29.413Z,100.00
2022-09-08T07:34:01.548Z,100.00
2022-09-08T07:36:37.179Z,100.00
2022-09-08T07:39:11.409Z,100.00
2022-09-08T07:41:43.018Z,100.00
2022-09-08T07:44:15.890Z,100.00
2022-09-08T07:46:53.584Z,100.00
2022-09-08T07:49:28.049Z,100.00
2022-09-08T07:52:05.887Z,100.00
2022-09-08T07:54:49.105Z,100.00
2022-09-08T07:57:40.170Z,100.00
2022-09-08T08:00:13.067Z,100.00
2022-09-08T08:02:56.551Z,100.00
2022-09-08T08:05:29.783Z,100.00
2022-09-08T08:08:10.898Z,100.00
2022-09-08T08:10:44.607Z,100.00
2022-09-08T08:13:23.032Z,100.00
2022-09-08T08:15:59.205Z,100.00
2022-09-08T08:18:36.790Z,100.00
2022-09-08T08:21:07.507Z,100.00
2022-09-08T08:23:48.905Z,100.00
2022-09-08T08:26:35.197Z,100.00
2022-09-08T08:29:28.023Z,100.00
2022-09-08T08:32:20.104Z,100.00
2022-09-08T08:34:55.546Z,100.00
2022-09-08T08:37:28.869Z,100.00
2022-09-08T08:39:58.302Z,100.00
2022-09-08T08:42:42.641Z,100.00
2022-09-08T08:45:25.791Z,100.00
2022-09-08T08:48:07.538Z,100.00
2022-09-08T08:51:01.503Z,100.00
2022-09-08T08:54:11.290Z,100.00
2022-09-08T08:56:47.211Z,100.00
2022-09-08T08:59:47.736Z,100.00
2022-09-08T09:02:22.345Z,100.00
2022-09-08T09:05:16.884Z,100.00
2022-09-08T09:08:13.299Z,100.00
2022-09-08T09:10:55.523Z,100.00
2022-09-08T09:13:52.516Z,100.00
2022-09-08T09:16:41.796Z,100.00
2022-09-08T09:19:45.750Z,100.00
2022-09-08T09:22:22.504Z,100.00
2022-09-08T09:25:11.511Z,100.00
2022-09-08T09:27:44.249Z,100.00
2022-09-08T09:30:21.921Z,100.00
2022-09-08T09:33:04.811Z,100.00
2022-09-08T09:35:45.986Z,100.00
2022-09-08T09:38:41.547Z,100.00
2022-09-08T09:41:37.519Z,100.00
2022-09-08T09:44:30.443Z,100.00
2022-09-08T09:47:14.858Z,100.00
2022-09-08T09:50:03.838Z,100.00
2022-09-08T09:52:41.919Z,100.00
2022-09-08T09:55:25.521Z,100.00
2022-09-08T09:58:28.395Z,100.00
2022-09-08T10:01:15.492Z,100.00
2022-09-08T10:04:23.289Z,100.00
2022-09-08T10:07:19.846Z,100.00
2022-09-08T10:10:22.335Z,100.00
2022-09-08T10:13:23.394Z,100.00
2022-09-08T10:16:15.528Z,100.00
2022-09-08T10:19:13.033Z,100.00
2022-09-08T10:22:19.892Z,100.00
2022-09-08T10:25:34.549Z,100.00
2022-09-08T10:28:21.314Z,100.00
2022-09-08T10:31:32.602Z,100.00
2022-09-08T10:34:37.714Z,100.00
2022-09-08T10:37:10.985Z,100.00
2022-09-08T10:39:50.435Z,100.00
2022-09-08T10:42:47.675Z,100.00
2022-09-08T10:45:24.741Z,100.00
2022-09-08T10:48:31.052Z,100.00
2022-09-08T10:51:16.226Z,100.00
2022-09-08T10:54:10.136Z,100.00
2022-09-08T10:56:41.089Z,100.00
2022-09-08T10:59:47.730Z,100.00
2022-09-08T11:02:32.553Z,100.00
2022-09-08T11:05:24.809Z,100.00
2022-09-08T11:08:21.588Z,100.00
2022-09-08T11:11:13.732Z,100.00
2022-09-08T11:14:01.480Z,100.00
2022-09-08T11:17:00.706Z,100.00
2022-09-08T11:19:39.104Z,100.00
2022-09-08T11:22:29.270Z,100.00
2022-09-08T11:25:13.395Z,100.00
2022-09-08T11:27:49.404Z,100.00
2022-09-08T11:30:21.205Z,100.00
2022-09-08T11:33:01.148Z,100.00
2022-09-08T11:35:39.519Z,100.00
2022-09-08T11:38:22.411Z,100.00
2022-09-08T11:41:18.305Z,100.00
2022-09-08T11:44:01.020Z,100.00
2022-09-08T11:46:44.025Z,100.00
2022-09-08T11:52:41.078Z,100.00
2022-09-08T11:55:36.895Z,100.00
2022-09-08T11:58:16.567Z,100.00
2022-09-08T12:01:02.067Z,100.00
2022-09-08T12:03:44.906Z,100.00
2022-09-08T12:06:39.674Z,100.00
2022-09-08T12:09:34.175Z,100.00
2022-09-08T12:12:25.446Z,100.00
2022-09-08T12:15:04.312Z,99.71
2022-09-08T12:17:51.886Z,100.00
2022-09-08T12:20:38.442Z,100.00
2022-09-08T12:23:38.759Z,100.00
2022-09-08T12:26:25.758Z,100.00
2022-09-08T12:29:29.969Z,100.00
2022-09-08T12:32:34.951Z,100.00
2022-09-08T12:35:19.744Z,100.00
2022-09-08T12:38:00.749Z,100.00
2022-09-08T12:40:51.463Z,100.00
2022-09-08T12:43:22.583Z,100.00
2022-09-08T12:46:21.885Z,100.00
2022-09-08T12:48:56.267Z,100.00
2022-09-08T12:51:27.048Z,100.00
2022-09-08T12:54:22.503Z,100.00
2022-09-08T12:57:02.940Z,90.83
2022-09-08T12:59:48.333Z,70.31
2022-09-08T13:02:37.435Z,58.29
2022-09-08T13:05:22.218Z,57.55
2022-09-08T13:07:58.101Z,62.01
2022-09-08T13:10:34.139Z,68.60
2022-09-08T13:13:32.404Z,66.98
2022-09-08T13:16:11.951Z,63.97
2022-09-08T13:18:45.754Z,60.49
2022-09-08T13:21:22.204Z,61.88
2022-09-08T13:23:51.923Z,66.44
2022-09-08T13:26:47.221Z,66.16
2022-09-08T13:32:34.937Z,71.78
2022-09-08T13:35:20.785Z,66.46
2022-09-08T13:38:03.179Z,63.61
2022-09-08T13:40:52.245Z,59.73
2022-09-08T13:43:43.745Z,59.63
2022-09-08T13:46:19.498Z,59.96
2022-09-08T13:49:06.831Z,60.21
2022-09-08T13:51:44.669Z,55.76
2022-09-08T13:54:45.684Z,51.57
2022-09-08T13:57:28.690Z,52.90
2022-09-08T14:00:07.655Z,50.82
2022-09-08T14:02:43.880Z,49.64
2022-09-08T14:05:20.864Z,51.49
2022-09-08T14:07:52.641Z,51.07
2022-09-08T14:10:27.432Z,52.76
2022-09-08T14:13:00.481Z,59.08
2022-09-08T14:15:30.472Z,55.96
2022-09-08T14:18:19.570Z,55.23
2022-09-08T14:21:02.794Z,58.70
2022-09-08T14:23:52.655Z,58.28
2022-09-08T14:26:39.979Z,61.07
2022-09-08T14:29:18.208Z,69.68
2022-09-08T14:32:03.751Z,79.95
2022-09-08T14:34:39.451Z,81.65
2022-09-08T14:37:13.302Z,77.87
2022-09-08T14:39:52.546Z,80.79
2022-09-08T14:42:24.904Z,78.02
2022-09-08T14:45:19.795Z,78.34
2022-09-08T14:48:11.253Z,74.70
2022-09-08T14:51:07.215Z,69.67
2022-09-08T14:53:51.396Z,60.98
2022-09-08T14:56:24.404Z,62.86
2022-09-08T14:58:56.566Z,72.50
2022-09-08T15:01:30.238Z,68.94
2022-09-08T15:04:02.416Z,69.80
2022-09-08T15:06:50.791Z,67.68
2022-09-08T15:09:32.789Z,69.00
2022-09-08T15:12:18.014Z,75.11
2022-09-08T15:14:53.451Z,68.93
2022-09-08T15:17:27.755Z,70.65
2022-09-08T15:20:04.876Z,71.64
2022-09-08T15:22:40.887Z,64.59
2022-09-08T15:25:23.763Z,65.31
2022-09-08T15:27:52.080Z,63.88
2022-09-08T15:30:21.868Z,69.64
2022-09-08T15:33:07.187Z,78.08
2022-09-08T15:35:47.641Z,76.93
2022-09-08T15:38:35.871Z,74.57
2022-09-08T15:41:21.222Z,75.85
2022-09-08T15:44:04.284Z,75.59
2022-09-08T15:46:39.491Z,72.76
2022-09-08T15:49:18.911Z,72.34
2022-09-08T15:52:04.128Z,68.23
2022-09-08T15:54:43.269Z,65.70
2022-09-08T15:57:25.721Z,64.85
2022-09-08T16:00:25.895Z,61.27
2022-09-08T16:02:58.040Z,64.21
2022-09-08T16:05:32.545Z,64.89
2022-09-08T16:08:11.847Z,63.14
2022-09-08T16:11:00.913Z,64.08
2022-09-08T16:13:31.337Z,63.04
2022-09-08T16:16:01.005Z,61.96
2022-09-08T16:18:33.889Z,62.91
2022-09-08T16:21:10.594Z,63.37
2022-09-08T16:23:45.156Z,58.59
2022-09-08T16:26:23.923Z,59.02
2022-09-08T16:29:02.180Z,59.95
2022-09-08T16:31:44.207Z,62.84
2022-09-08T16:34:25.427Z,61.42
2022-09-08T16:36:54.209Z,61.20
2022-09-08T16:39:26.853Z,62.41
2022-09-08T16:42:01.072Z,56.73
2022-09-08T16:44:31.827Z,54.43
2022-09-08T16:47:32.536Z,52.53
2022-09-08T16:50:05.172Z,52.60
2022-09-08T16:52:41.926Z,53.09
2022-09-08T16:55:23.129Z,51.83
2022-09-08T16:57:59.566Z,51.31
2022-09-08T17:00:32.069Z,50.40
2022-09-08T17:03:08.169Z,50.10
2022-09-08T17:05:47.132Z,50.96
2022-09-08T17:08:20.066Z,50.93
2022-09-08T17:11:01.308Z,51.91
2022-09-08T17:13:31.491Z,53.48
2022-09-08T17:16:22.495Z,53.68
2022-09-08T17:18:54.125Z,55.62
2022-09-08T17:21:51.420Z,56.77
2022-09-08T17:24:23.655Z,57.76
2022-09-08T17:27:23.410Z,60.79
2022-09-08T17:30:05.563Z,65.70
2022-09-08T17:32:55.966Z,69.31
2022-09-08T17:35:40.506Z,75.44
2022-09-08T17:38:25.236Z,79.99
2022-09-08T17:40:58.587Z,83.79
2022-09-08T17:43:31.213Z,88.03
2022-09-08T17:46:08.177Z,90.04
2022-09-08T17:48:44.990Z,91.80
2022-09-08T17:51:21.945Z,92.72
2022-09-08T17:53:54.575Z,95.31
2022-09-08T17:56:42.907Z,97.62
2022-09-08T17:59:23.689Z,100.00
2022-09-08T18:02:18.077Z,100.00
2022-09-08T18:04:49.932Z,100.00
2022-09-08T18:07:20.544Z,100.00
2022-09-08T18:10:15.082Z,100.00
2022-09-08T18:12:51.960Z,100.00
2022-09-08T18:15:26.966Z,100.00
2022-09-08T18:18:00.909Z,100.00
2022-09-08T18:20:30.849Z,100.00
2022-09-08T18:23:09.752Z,100.00
2022-09-08T18:25:43.880Z,100.00
2022-09-08T18:28:28.281Z,100.00
2022-09-08T18:31:14.069Z,100.00
2022-09-08T18:34:03.348Z,100.00
2022-09-08T18:36:53.655Z,100.00
2022-09-08T18:39:30.139Z,100.00
2022-09-08T18:42:30.611Z,100.00
2022-09-08T18:45:20.820Z,100.00
2022-09-08T18:48:15.308Z,100.00
2022-09-08T18:51:00.048Z,100.00
2022-09-08T18:53:31.897Z,100.00
2022-09-08T18:56:23.076Z,100.00
2022-09-08T18:59:05.002Z,100.00
2022-09-08T19:01:47.892Z,100.00
2022-09-08T19:04:41.656Z,100.00
2022-09-08T19:07:23.518Z,100.00
2022-09-08T19:10:00.495Z,100.00
2022-09-08T19:12:35.667Z,100.00
2022-09-08T19:15:13.831Z,100.00
2022-09-08T19:17:55.055Z,100.00
2022-09-08T19:20:26.627Z,100.00
2022-09-08T19:23:00.787Z,100.00
2022-09-08T19:25:28.721Z,100.00
2022-09-08T19:28:26.498Z,100.00
2022-09-08T19:31:03.337Z,100.00
2022-09-08T19:33:43.407Z,100.00
2022-09-08T19:36:28.046Z,100.00
2022-09-08T19:39:03.509Z,100.00
2022-09-08T19:41:39.592Z,100.00
2022-09-08T19:44:21.719Z,100.00
2022-09-08T19:46:58.404Z,100.00
2022-09-08T19:49:52.152Z,100.00
2022-09-08T19:52:36.943Z,100.00
2022-09-08T19:55:26.702Z,100.00
2022-09-08T19:57:56.845Z,100.00
2022-09-08T20:00:31.517Z,100.00
2022-09-08T20:03:09.144Z,100.00
2022-09-08T20:05:44.129Z,100.00
2022-09-08T20:08:38.035Z,100.00
2022-09-08T20:11:11.490Z,100.00
2022-09-08T20:13:50.758Z,100.00
2022-09-08T20:16:21.323Z,100.00
2022-09-08T20:18:55.305Z,100.00
2022-09-08T20:21:47.529Z,100.00
2022-09-08T20:24:29.480Z,100.00
2022-09-08T20:27:03.975Z,100.00
2022-09-08T20:29:39.664Z,100.00
2022-09-08T20:35:19.729Z,100.00
2022-09-08T20:38:17.223Z,100.00
2022-09-08T20:40:47.664Z,100.00
2022-09-08T20:43:25.264Z,100.00
2022-09-08T20:45:55.141Z,100.00
2022-09-08T20:48:29.840Z,100.00
2022-09-08T20:51:14.093Z,100.00
2022-09-08T20:54:08.398Z,100.00
2022-09-08T20:56:44.602Z,100.00
2022-09-08T20:59:19.273Z,100.00
2022-09-08T21:01:48.688Z,100.00
2022-09-08T21:04:23.218Z,100.00
2022-09-08T21:06:52.091Z,100.00
2022-09-08T21:09:28.825Z,100.00
2022-09-08T21:12:08.345Z,100.00
2022-09-08T21:14:42.288Z,100.00
2022-09-08T21:17:15.723Z,100.00
2022-09-08T21:19:52.767Z,100.00
2022-09-08T21:22:29.060Z,100.00
2022-09-08T21:25:03.414Z,100.00
2022-09-08T21:27:40.597Z,100.00
2022-09-08T21:30:18.108Z,100.00
2022-09-08T21:32:59.614Z,100.00
2022-09-08T21:35:35.487Z,100.00
2022-09-08T21:38:09.385Z,100.00
2022-09-08T21:40:51.160Z,100.00
2022-09-08T21:43:21.976Z,100.00
2022-09-08T21:46:00.345Z,100.00
2022-09-08T21:48:29.303Z,100.00
2022-09-08T21:50:59.065Z,100.00
2022-09-08T21:53:36.937Z,100.00
2022-09-08T21:56:17.598Z,100.00
2022-09-08T21:58:53.961Z,100.00
2022-09-08T22:01:28.468Z,100.00
2022-09-08T22:03:58.610Z,100.00
2022-09-08T22:06:30.255Z,100.00
2022-09-08T22:09:02.238Z,100.00
2022-09-08T22:11:36.473Z,100.00
2022-09-08T22:14:13.123Z,100.00
2022-09-08T22:16:48.189Z,100.00
2022-09-08T22:19:31.708Z,100.00
2022-09-08T22:22:14.958Z,100.00
2022-09-08T22:24:50.389Z,100.00
2022-09-08T22:27:21.744Z,100.00
2022-09-08T22:30:03.656Z,100.00
2022-09-08T22:32:41.355Z,100.00
2022-09-08T22:35:23.759Z,100.00
2022-09-08T22:37:58.231Z,100.00
2022-09-08T22:40:45.247Z,100.00
2022-09-08T22:43:21.973Z,100.00
2022-09-08T22:45:55.154Z,100.00
2022-09-08T22:48:33.588Z,100.00
2022-09-08T22:51:05.184Z,100.00
2022-09-08T22:53:36.685Z,100.00
2022-09-08T22:56:13.495Z,100.00
2022-09-08T22:58:43.311Z,100.00
2022-09-08T23:01:18.359Z,100.00
2022-09-08T23:03:55.278Z,100.00
2022-09-08T23:06:27.219Z,100.00
2022-09-08T23:09:02.996Z,100.00
2022-09-08T23:11:41.155Z,100.00
2022-09-08T23:14:23.085Z,100.00
2022-09-08T23:17:01.621Z,100.00
2022-09-08T23:19:39.022Z,100.00
2022-09-08T23:22:11.872Z,100.00
2022-09-08T23:24:43.529Z,100.00
2022-09-08T23:27:26.479Z,100.00
2022-09-08T23:30:01.112Z,100.00
2022-09-08T23:32:46.365Z,100.00
2022-09-08T23:35:16.139Z,100.00
2022-09-08T23:37:57.002Z,100.00
2022-09-08T23:40:30.272Z,100.00
2022-09-08T23:42:59.125Z,100.00
2022-09-08T23:45:32.132Z,100.00
2022-09-08T23:48:05.512Z,100.00
2022-09-08T23:50:35.729Z,100.00
2022-09-08T23:53:06.069Z,100.00
2022-09-08T23:55:37.224Z,100.00
2022-09-08T23:58:11.849Z,100.00
